Time;durP1;ratioP1;P1;durP2;ratioP2;P2;SDS_P1;SDS_P2;PMS_P1;PMS_P2;Temp;Humidity;BMP_temperature;BMP_pressure;BME280_temperature;BME280_humidity;BME280_pressure;Samples;Min_cycle;Max_cycle;Signal;HPM_P1;HPM_P2
2021/12/15 00:00:29;;;;;;;34.03;16.25;;;;;;;3.32;100.00;99923.25;5055209;28;20345;-68
2021/12/15 00:03:16;;;;;;;36.22;16.40;;;;;;;3.37;100.00;99928.34;5055812;28;20159;-67
2021/12/15 00:06:10;;;;;;;31.50;13.60;;;;;;;3.43;100.00;99914.41;5054941;28;20052;-68
2021/12/15 00:08:58;;;;;;;31.90;15.57;;;;;;;3.43;100.00;99917.00;5055887;28;20048;-68
2021/12/15 00:11:45;;;;;;;25.25;13.88;;;;;;;3.28;100.00;99918.19;5060679;28;20039;-68
2021/12/15 00:14:33;;;;;;;30.33;14.85;;;;;;;3.39;100.00;99928.31;5055686;28;20052;-68
2021/12/15 00:17:22;;;;;;;33.22;15.35;;;;;;;3.44;100.00;99937.69;5054836;28;20056;-67
2021/12/15 00:20:13;;;;;;;32.83;16.00;;;;;;;3.31;100.00;99928.47;5055947;28;20060;-67
2021/12/15 00:22:59;;;;;;;24.67;12.15;;;;;;;3.31;100.00;99920.72;5055696;28;20051;-66
2021/12/15 00:25:45;;;;;;;28.60;14.30;;;;;;;3.41;100.00;99927.38;5073603;28;20048;-67
2021/12/15 00:28:31;;;;;;;32.35;14.77;;;;;;;3.50;100.00;99907.34;5074810;28;20059;-66
2021/12/15 00:31:18;;;;;;;25.40;12.73;;;;;;;3.62;100.00;99921.81;5072925;28;20075;-67
2021/12/15 00:34:07;;;;;;;28.45;14.30;;;;;;;3.72;100.00;99927.66;5073174;28;20047;-68
2021/12/15 00:36:52;;;;;;;29.42;15.70;;;;;;;3.68;100.00;99916.50;5073234;28;20043;-68
2021/12/15 00:39:38;;;;;;;27.40;14.50;;;;;;;3.48;100.00;99891.84;5074037;28;20071;-67
2021/12/15 00:42:25;;;;;;;34.80;16.27;;;;;;;3.75;100.00;99928.44;5072793;28;20056;-67
2021/12/15 00:45:11;;;;;;;26.52;12.98;;;;;;;3.75;100.00;99918.06;5074041;28;20150;-68
2021/12/15 00:47:58;;;;;;;36.35;15.77;;;;;;;3.62;100.00;99916.63;5073422;28;20067;-68
2021/12/15 00:50:46;;;;;;;38.85;17.42;;;;;;;3.63;100.00;99936.47;5073743;28;20052;-69
2021/12/15 00:53:32;;;;;;;30.98;15.25;;;;;;;3.52;100.00;99940.16;5073824;28;20052;-67
2021/12/15 00:56:18;;;;;;;28.52;14.07;;;;;;;3.50;100.00;99939.31;5072881;28;20051;-67
2021/12/15 00:59:06;;;;;;;29.35;13.82;;;;;;;3.58;100.00;99944.34;5072394;28;20071;-67
2021/12/15 01:01:53;;;;;;;33.97;15.95;;;;;;;3.45;100.00;99947.19;5073980;28;20075;-68
2021/12/15 01:04:38;;;;;;;38.25;17.02;;;;;;;3.36;100.00;99946.53;5064536;28;20047;-68
2021/12/15 01:07:25;;;;;;;37.05;16.35;;;;;;;3.32;100.00;99930.19;5078756;28;20047;-68
2021/12/15 01:10:13;;;;;;;36.83;17.27;;;;;;;3.31;100.00;99947.44;5072924;28;20047;-67
2021/12/15 01:22:00;;;;;;;35.58;16.00;;;;;;;3.48;100.00;99946.25;5072463;28;20063;-68
2021/12/15 01:24:47;;;;;;;38.10;15.82;;;;;;;3.33;100.00;99943.09;5072866;28;20048;-68
2021/12/15 01:27:35;;;;;;;31.42;15.48;;;;;;;3.11;100.00;99934.91;5072003;28;20422;-68
2021/12/15 01:30:25;;;;;;;33.00;15.27;;;;;;;3.21;100.00;99935.56;5072985;28;20055;-68
2021/12/15 01:33:12;;;;;;;31.80;15.35;;;;;;;3.37;100.00;99949.06;5074253;28;20048;-69
2021/12/15 01:35:59;;;;;;;29.42;14.02;;;;;;;3.41;100.00;99944.69;5074283;28;20051;-67
2021/12/15 01:38:46;;;;;;;31.20;14.13;;;;;;;3.37;100.00;99950.81;5073231;28;20047;-68
2021/12/15 01:41:33;;;;;;;33.20;15.82;;;;;;;3.37;100.00;99951.66;5073232;28;20498;-68
2021/12/15 01:47:04;;;;;;;30.48;14.40;;;;;;;3.42;100.00;99956.75;5073893;28;20052;-67
2021/12/15 01:49:53;;;;;;;28.08;13.45;;;;;;;3.71;100.00;99960.47;5073836;28;20474;-68
2021/12/15 01:52:41;;;;;;;26.60;13.18;;;;;;;3.72;100.00;99969.13;5072877;28;20135;-67
2021/12/15 01:55:27;;;;;;;28.27;13.55;;;;;;;3.70;100.00;99967.41;5073617;28;20048;-67
2021/12/15 01:58:15;;;;;;;33.00;15.13;;;;;;;3.63;100.00;99963.25;5074117;28;20518;-67
2021/12/15 02:01:06;;;;;;;24.45;12.32;;;;;;;3.67;100.00;99962.28;5072906;28;20051;-67
2021/12/15 02:03:52;;;;;;;33.38;14.75;;;;;;;3.68;100.00;99963.16;5073508;28;20059;-67
2021/12/15 02:06:42;;;;;;;29.10;14.50;;;;;;;3.60;100.00;99952.94;5073425;28;20510;-67
2021/12/15 02:12:38;;;;;;;31.50;15.00;;;;;;;3.35;100.00;99944.78;5073039;28;20055;-67
2021/12/15 02:15:28;;;;;;;32.28;13.85;;;;;;;3.46;100.00;99958.38;5078468;28;20055;-67
2021/12/15 02:18:19;;;;;;;33.42;12.85;;;;;;;3.55;100.00;99957.38;5072883;28;20060;-67
2021/12/15 02:21:09;;;;;;;30.27;13.80;;;;;;;3.32;100.00;99946.59;5066122;28;20052;-66
2021/12/15 02:23:58;;;;;;;29.27;14.27;;;;;;;3.29;100.00;99945.78;5064825;28;20438;-67
2021/12/15 02:26:49;;;;;;;27.13;13.02;;;;;;;3.17;100.00;99945.13;5058114;28;20396;-67
2021/12/15 02:29:40;;;;;;;24.60;11.57;;;;;;;3.30;100.00;99943.16;5077312;28;20056;-67
2021/12/15 02:32:44;;;;;;;26.98;12.15;;;;;;;3.45;100.00;99954.09;5070794;28;20107;-67
2021/12/15 02:38:42;;;;;;;28.20;11.80;;;;;;;3.51;100.00;99937.59;5062480;28;20051;-67
2021/12/15 02:41:30;;;;;;;25.25;11.50;;;;;;;3.54;100.00;99950.47;5062542;28;20055;-67
2021/12/15 02:44:21;;;;;;;22.63;11.35;;;;;;;3.67;100.00;99957.09;5070764;28;20047;-67
2021/12/15 02:47:10;;;;;;;23.02;11.88;;;;;;;3.60;100.00;99954.66;5070407;28;20067;-67
2021/12/15 02:49:58;;;;;;;28.38;12.57;;;;;;;3.56;100.00;99941.78;5071281;28;20044;-67
2021/12/15 02:52:45;;;;;;;26.98;12.60;;;;;;;3.25;100.00;99928.59;5072254;28;20051;-67
2021/12/15 02:55:31;;;;;;;24.67;11.45;;;;;;;3.32;100.00;99964.72;5071075;28;20510;-67
2021/12/15 02:58:19;;;;;;;31.67;13.18;;;;;;;3.39;100.00;99964.59;5071544;28;20055;-67
2021/12/15 03:01:20;;;;;;;26.15;12.90;;;;;;;3.31;100.00;99970.75;5062296;28;20510;-67
2021/12/15 03:07:11;;;;;;;33.05;15.43;;;;;;;3.20;100.00;99972.69;5062180;28;20462;-67
2021/12/15 03:16:06;;;;;;;28.55;12.80;;;;;;;3.32;100.00;99964.72;5070375;28;20094;-67
2021/12/15 03:18:52;;;;;;;23.95;12.20;;;;;;;3.22;100.00;99962.31;5071288;28;20048;-67
2021/12/15 03:21:38;;;;;;;24.27;12.70;;;;;;;3.23;100.00;99962.31;5075995;28;20067;-68
2021/12/15 03:24:26;;;;;;;25.38;12.60;;;;;;;3.12;100.00;99959.91;5087465;28;20538;-67
2021/12/15 03:27:18;;;;;;;25.58;12.10;;;;;;;3.20;100.00;99962.34;5075751;28;20059;-67
2021/12/15 03:36:24;;;;;;;27.38;11.82;;;;;;;3.28;100.00;99963.06;5081277;28;20094;-67
2021/12/15 03:39:12;;;;;;;21.67;11.68;;;;;;;3.25;100.00;99965.69;5076598;28;20048;-68
2021/12/15 03:42:03;;;;;;;26.23;12.90;;;;;;;3.19;100.00;99958.91;5076410;28;20060;-67
2021/12/15 03:44:49;;;;;;;20.80;11.75;;;;;;;3.30;100.00;99979.44;5076447;28;20048;-67
2021/12/15 03:47:37;;;;;;;25.88;12.43;;;;;;;3.16;100.00;99961.56;5068753;28;20056;-67
2021/12/15 03:50:25;;;;;;;25.00;12.15;;;;;;;3.20;100.00;99970.97;5079973;28;20399;-67
2021/12/15 03:53:13;;;;;;;24.67;11.95;;;;;;;3.22;100.00;99973.53;5076069;28;20071;-67
2021/12/15 03:56:01;;;;;;;22.02;10.88;;;;;;;3.18;100.00;99972.72;5075896;28;20048;-67
2021/12/15 03:58:47;;;;;;;26.65;12.35;;;;;;;3.22;100.00;99985.63;5075980;28;20051;-67
2021/12/15 04:01:34;;;;;;;22.00;10.10;;;;;;;3.30;100.00;99983.75;5079082;28;20481;-68
2021/12/15 04:04:20;;;;;;;25.25;13.07;;;;;;;3.40;100.00;99987.00;5096175;28;20051;-68
2021/12/15 04:07:07;;;;;;;26.83;12.63;;;;;;;3.25;100.00;99983.00;5093075;28;20047;-67
2021/12/15 04:09:53;;;;;;;24.95;11.40;;;;;;;3.16;100.00;99976.25;5074680;28;20051;-67
2021/12/15 04:12:40;;;;;;;24.88;12.48;;;;;;;3.15;100.00;99990.91;5080511;28;20051;-68
2021/12/15 04:18:12;;;;;;;23.65;12.93;;;;;;;3.00;100.00;99996.38;5080578;28;20055;-68
2021/12/15 04:20:59;;;;;;;22.25;11.65;;;;;;;3.11;100.00;99997.06;5075547;28;20063;-68
2021/12/15 04:23:53;;;;;;;25.23;12.65;;;;;;;3.03;100.00;99992.00;5080787;28;20051;-68
2021/12/15 04:26:39;;;;;;;23.95;12.18;;;;;;;3.10;100.00;99997.09;5074342;28;20051;-68
2021/12/15 04:29:28;;;;;;;23.88;11.63;;;;;;;2.92;100.00;99999.13;5073770;28;20384;-67
2021/12/15 04:32:42;;;;;;;26.20;12.80;;;;;;;2.86;100.00;100007.00;5058923;28;20529;-67
2021/12/15 04:35:28;;;;;;;25.75;12.45;;;;;;;2.91;100.00;99995.66;5074101;28;20399;-67
2021/12/15 04:38:15;;;;;;;26.95;12.73;;;;;;;2.96;100.00;99998.16;5073035;28;20456;-67
2021/12/15 04:41:07;;;;;;;26.08;13.27;;;;;;;2.93;100.00;100018.94;5073751;28;20059;-67
2021/12/15 04:43:58;;;;;;;21.75;11.98;;;;;;;2.91;100.00;100008.59;5074427;28;20052;-67
2021/12/15 04:46:58;;;;;;;26.77;12.88;;;;;;;3.01;100.00;100004.13;5074171;28;20037;-67
2021/12/15 04:49:51;;;;;;;26.98;12.95;;;;;;;2.92;100.00;99992.19;5079127;28;20049;-68
2021/12/15 04:52:38;;;;;;;23.63;12.50;;;;;;;2.88;100.00;99989.69;5065689;28;20052;-68
2021/12/15 04:55:25;;;;;;;28.23;12.55;;;;;;;2.83;100.00;100000.13;5058436;28;20041;-67
2021/12/15 04:58:13;;;;;;;25.00;12.05;;;;;;;3.03;100.00;100009.28;5058398;28;20476;-68
2021/12/15 05:01:02;;;;;;;25.05;11.88;;;;;;;2.97;100.00;100019.75;5061082;28;20506;-67
2021/12/15 05:03:48;;;;;;;24.25;12.45;;;;;;;2.91;100.00;100018.97;5063417;28;20131;-66
2021/12/15 05:06:35;;;;;;;25.35;11.50;;;;;;;3.01;100.00;100030.03;5082334;28;20052;-66
2021/12/15 05:09:21;;;;;;;26.20;12.55;;;;;;;3.10;100.00;100021.22;5060533;28;20384;-65
2021/12/15 05:12:07;;;;;;;25.00;11.73;;;;;;;3.08;100.00;100030.78;5055844;28;20052;-65
2021/12/15 05:14:54;;;;;;;24.33;12.02;;;;;;;3.04;100.00;100024.78;5096047;28;20040;-67
2021/12/15 05:17:40;;;;;;;25.48;11.25;;;;;;;3.06;100.00;100048.94;5073365;28;20044;-69
2021/12/15 05:20:27;;;;;;;27.83;12.30;;;;;;;3.24;100.00;100039.13;5085447;28;20037;-67
2021/12/15 05:23:15;;;;;;;19.67;9.88;;;;;;;3.73;100.00;100049.44;5065408;28;20407;-69
2021/12/15 05:26:03;;;;;;;24.65;12.63;;;;;;;3.52;100.00;100051.59;5062669;28;20423;-69
2021/12/15 05:28:51;;;;;;;23.50;10.95;;;;;;;3.39;100.00;100058.72;5066310;28;20041;-68
2021/12/15 05:31:39;;;;;;;22.55;11.13;;;;;;;3.48;100.00;100060.28;5054129;28;20460;-65
2021/12/15 05:34:25;;;;;;;17.05;7.32;;;;;;;3.91;100.00;100047.38;5053972;28;20041;-65
2021/12/15 05:37:11;;;;;;;18.40;9.30;;;;;;;4.06;100.00;100049.63;5053186;28;20060;-64
2021/12/15 05:39:58;;;;;;;21.80;10.60;;;;;;;3.96;100.00;100061.09;5053557;28;20503;-67
2021/12/15 05:42:44;;;;;;;22.73;10.30;;;;;;;3.75;100.00;100060.66;5053555;28;20056;-66
2021/12/15 05:45:32;;;;;;;23.70;11.00;;;;;;;3.35;100.00;100048.41;5043477;28;20053;-65
2021/12/15 05:48:20;;;;;;;25.30;11.98;;;;;;;3.16;100.00;100053.94;5051831;28;20048;-66
2021/12/15 05:51:06;;;;;;;22.65;10.40;;;;;;;3.97;100.00;100054.16;5054704;28;20045;-66
2021/12/15 05:53:51;;;;;;;19.30;8.80;;;;;;;4.03;100.00;100047.09;5052580;28;20045;-64
2021/12/15 05:56:38;;;;;;;21.38;9.13;;;;;;;3.91;100.00;100044.78;5066194;28;20048;-66
2021/12/15 05:59:25;;;;;;;21.40;10.85;;;;;;;3.57;100.00;100041.97;5068337;28;20048;-66
2021/12/15 06:02:11;;;;;;;23.45;10.30;;;;;;;3.29;100.00;100031.28;5070672;28;20041;-65
2021/12/15 06:04:56;;;;;;;23.92;11.13;;;;;;;3.18;100.00;100028.88;5068966;28;20044;-65
2021/12/15 06:07:44;;;;;;;24.20;12.10;;;;;;;3.00;100.00;100030.91;5071418;28;20040;-66
2021/12/15 06:10:35;;;;;;;23.27;11.82;;;;;;;3.04;100.00;100035.13;5072351;28;20045;-67
2021/12/15 06:13:26;;;;;;;22.33;10.57;;;;;;;2.97;100.00;100046.47;5057841;28;20044;-67
2021/12/15 06:16:12;;;;;;;24.92;11.13;;;;;;;2.81;100.00;100038.97;5072984;28;20056;-65
2021/12/15 06:19:06;;;;;;;24.88;12.10;;;;;;;2.93;100.00;100060.34;5073593;28;20037;-65
2021/12/15 06:21:51;;;;;;;26.08;12.13;;;;;;;3.01;100.00;100061.09;5072556;28;20056;-68
2021/12/15 06:24:38;;;;;;;22.38;10.90;;;;;;;2.89;100.00;100072.50;5072448;28;20399;-67
2021/12/15 06:27:24;;;;;;;22.52;11.88;;;;;;;2.72;100.00;100067.59;5073216;28;20367;-67
2021/12/15 06:30:11;;;;;;;28.83;13.10;;;;;;;2.86;100.00;100082.06;5072740;28;20415;-67
2021/12/15 06:32:57;;;;;;;27.33;12.00;;;;;;;2.92;100.00;100095.75;5086451;28;20459;-68
2021/12/15 06:35:53;;;;;;;25.70;11.75;;;;;;;2.82;100.00;100105.38;5085908;28;20041;-66
2021/12/15 06:38:44;;;;;;;26.27;12.07;;;;;;;2.88;100.00;100108.75;5077706;28;20040;-68
2021/12/15 06:41:29;;;;;;;22.10;11.07;;;;;;;2.90;100.00;100114.78;5072093;28;20475;-66
2021/12/15 06:44:16;;;;;;;29.25;11.88;;;;;;;2.89;100.00;100107.91;5073082;28;20044;-66
2021/12/15 06:59:08;;;;;;;28.15;12.88;;;;;;;3.18;100.00;100143.69;5070403;28;20041;-65
2021/12/15 07:01:56;;;;;;;23.55;11.45;;;;;;;3.18;100.00;100138.50;5070886;28;20040;-65
2021/12/15 07:04:42;;;;;;;22.75;10.20;;;;;;;3.13;100.00;100147.22;5072890;28;20037;-66
2021/12/15 07:07:28;;;;;;;25.27;11.75;;;;;;;2.98;100.00;100141.41;5072252;28;20036;-66
2021/12/15 07:10:17;;;;;;;21.42;10.38;;;;;;;3.04;100.00;100141.31;5068990;28;20040;-66
2021/12/15 07:13:05;;;;;;;23.15;10.07;;;;;;;3.10;100.00;100150.72;5079586;28;20057;-63
2021/12/15 07:15:59;;;;;;;23.02;11.90;;;;;;;3.19;100.00;100139.38;5057486;28;20053;-63
2021/12/15 07:19:05;;;;;;;21.75;10.82;;;;;;;3.20;100.00;100148.84;5061849;28;20044;-63
2021/12/15 07:22:06;;;;;;;25.83;11.25;;;;;;;3.14;100.00;100136.84;5070299;28;20044;-63
2021/12/15 07:24:51;;;;;;;23.08;11.52;;;;;;;3.08;100.00;100142.97;5070930;28;20052;-63
2021/12/15 07:27:40;;;;;;;24.70;11.02;;;;;;;3.09;100.00;100123.09;5069946;28;20041;-63
2021/12/15 07:30:26;;;;;;;22.80;10.50;;;;;;;3.28;100.00;100152.16;5070912;28;20041;-62
2021/12/15 07:33:12;;;;;;;25.10;12.00;;;;;;;3.22;100.00;100154.84;5077661;28;20052;-62
2021/12/15 07:35:58;;;;;;;26.48;11.70;;;;;;;3.20;100.00;100169.56;5062601;28;20052;-62
2021/12/15 07:38:44;;;;;;;22.67;11.05;;;;;;;4.94;100.00;100164.56;5063311;28;20044;-67
2021/12/15 07:41:37;;;;;;;20.13;9.85;;;;;;;4.93;100.00;100168.03;5084979;28;20049;-63
2021/12/15 07:44:25;;;;;;;22.58;11.05;;;;;;;4.07;97.76;100183.66;5072438;28;20111;-65
2021/12/15 07:47:11;;;;;;;23.63;10.90;;;;;;;3.85;100.00;100179.75;5072300;28;20059;-64
2021/12/15 07:50:00;;;;;;;23.52;11.10;;;;;;;3.77;100.00;100192.84;5072344;28;20044;-65
2021/12/15 07:52:48;;;;;;;26.92;11.05;;;;;;;3.62;100.00;100188.78;5072165;28;20056;-62
2021/12/15 07:55:36;;;;;;;26.48;12.52;;;;;;;3.69;100.00;100187.78;5071578;28;20040;-64
2021/12/15 07:58:24;;;;;;;25.67;11.95;;;;;;;3.85;98.61;100195.28;5071332;28;20044;-64
2021/12/15 08:01:11;;;;;;;24.70;10.82;;;;;;;4.44;100.00;100201.94;5072018;28;20054;-65
2021/12/15 08:03:57;;;;;;;24.27;11.23;;;;;;;4.35;98.76;100208.19;5072079;28;20044;-64
2021/12/15 08:06:45;;;;;;;27.33;13.25;;;;;;;4.10;97.40;100225.97;5071572;28;20048;-65
2021/12/15 08:09:31;;;;;;;23.55;11.05;;;;;;;4.12;96.83;100222.47;5078631;28;20510;-64
2021/12/15 08:12:17;;;;;;;26.60;12.05;;;;;;;3.94;97.77;100221.91;5074571;28;20056;-65
2021/12/15 08:15:06;;;;;;;21.45;10.05;;;;;;;4.17;96.67;100230.16;5075870;28;20059;-63
2021/12/15 08:17:52;;;;;;;21.20;9.55;;;;;;;4.05;98.42;100234.69;5075573;28;20055;-65
2021/12/15 08:20:38;;;;;;;22.58;11.18;;;;;;;4.12;97.48;100232.84;5075856;28;20063;-47
2021/12/15 08:23:23;;;;;;;24.08;10.40;;;;;;;5.06;96.26;100230.97;5076433;28;20115;-72
2021/12/15 08:26:10;;;;;;;25.65;10.98;;;;;;;4.63;95.39;100240.53;5084725;28;20047;-72
2021/12/15 08:28:56;;;;;;;25.27;11.13;;;;;;;4.36;95.17;100261.81;5085246;28;20048;-71
2021/12/15 08:31:42;;;;;;;22.40;10.45;;;;;;;4.44;95.86;100259.06;5070299;28;20404;-72
2021/12/15 08:34:27;;;;;;;25.92;10.77;;;;;;;4.37;95.01;100255.75;5100772;28;20055;-70
2021/12/15 08:37:14;;;;;;;20.00;10.35;;;;;;;4.39;95.14;100268.69;5096243;28;20063;-70
2021/12/15 08:40:00;;;;;;;24.75;11.65;;;;;;;4.55;93.49;100274.44;5101091;28;20055;-68
2021/12/15 08:42:46;;;;;;;21.95;10.68;;;;;;;4.67;93.85;100278.50;5095198;28;20518;-69
2021/12/15 08:45:32;;;;;;;23.33;10.68;;;;;;;4.62;93.26;100285.56;5092449;28;20071;-68
2021/12/15 08:48:23;;;;;;;24.20;11.07;;;;;;;4.59;93.17;100283.00;5060372;28;20056;-70
2021/12/15 08:51:15;;;;;;;23.52;11.15;;;;;;;4.49;93.89;100285.78;5066023;28;20102;-70
2021/12/15 08:54:05;;;;;;;25.27;11.25;;;;;;;4.37;93.79;100279.09;5091354;28;20122;-67
2021/12/15 08:56:52;;;;;;;25.80;11.68;;;;;;;4.36;94.45;100281.72;5074169;28;20047;-66
2021/12/15 08:59:38;;;;;;;20.90;9.40;;;;;;;4.42;94.89;100286.78;5078722;28;20059;-68
2021/12/15 09:02:24;;;;;;;22.88;10.57;;;;;;;4.54;94.29;100283.97;5102542;27;20060;-61
2021/12/15 09:05:10;;;;;;;18.08;8.52;;;;;;;5.49;100.00;100288.91;5073674;28;20388;-61
2021/12/15 09:07:59;;;;;;;23.17;10.20;;;;;;;5.93;100.00;100287.88;5078068;28;20062;-62
2021/12/15 09:10:45;;;;;;;22.95;11.40;;;;;;;6.31;100.00;100271.34;5094575;28;20048;-63
2021/12/15 09:13:32;;;;;;;113.88;53.08;;;;;;;6.93;100.00;100276.59;5094350;28;20044;-54
2021/12/15 09:16:19;;;;;;;37.42;18.48;;;;;;;6.49;92.54;100267.41;5099771;28;20040;-53
2021/12/15 09:19:06;;;;;;;45.60;24.25;;;;;;;6.07;100.00;100281.50;5100069;28;20399;-53
2021/12/15 09:21:52;;;;;;;34.47;17.60;;;;;;;5.98;100.00;100296.44;5084865;28;20048;-55
2021/12/15 09:24:38;;;;;;;30.30;14.23;;;;;;;7.09;100.00;100283.06;5094954;28;20048;-55
2021/12/15 09:27:24;;;;;;;23.48;12.27;;;;;;;6.95;100.00;100280.00;5095074;28;20047;-54
2021/12/15 09:30:14;;;;;;;19.90;11.05;;;;;;;7.11;99.53;100286.47;5094873;28;20483;-56
2021/12/15 09:32:59;;;;;;;20.63;10.55;;;;;;;6.96;94.85;100285.19;5095044;28;20055;-54
2021/12/15 09:35:47;;;;;;;21.38;10.10;;;;;;;6.35;87.01;100291.22;5093789;28;20055;-54
2021/12/15 09:38:34;;;;;;;24.55;10.85;;;;;;;6.50;95.30;100285.56;5093892;28;20051;-53
2021/12/15 09:41:21;;;;;;;22.27;9.85;;;;;;;6.89;100.00;100283.63;5094170;28;20051;-54
2021/12/15 09:44:10;;;;;;;25.13;11.90;;;;;;;6.70;89.60;100278.09;5085920;28;20403;-58
2021/12/15 09:56:49;;;;;;;17.15;8.85;;;;;;;6.49;90.09;100275.22;5093987;28;20139;-54
2021/12/15 10:20:23;;;;;;;25.63;12.07;;;;;;;4.87;94.55;100265.13;5071233;28;20056;-55
2021/12/15 10:23:14;;;;;;;26.58;12.20;;;;;;;5.58;95.04;100263.59;5071513;28;20659;-53
2021/12/15 10:26:00;;;;;;;21.75;10.15;;;;;;;5.54;97.24;100261.06;5072628;28;20051;-56
2021/12/15 10:28:52;;;;;;;16.40;8.32;;;;;;;6.33;100.00;100259.16;5078416;28;20056;-55
2021/12/15 10:31:40;;;;;;;15.18;7.43;;;;;;;6.86;92.16;100266.34;5073459;28;20051;-55
2021/12/15 10:34:26;;;;;;;19.67;8.73;;;;;;;7.15;88.21;100264.63;5073519;28;20503;-54
2021/12/15 10:37:12;;;;;;;17.10;7.63;;;;;;;7.13;91.94;100274.25;5073480;28;20412;-56
2021/12/15 10:40:16;;;;;;;18.20;9.07;;;;;;;7.23;90.96;100268.75;5072492;28;20055;-56
2021/12/15 10:43:04;;;;;;;18.63;8.55;;;;;;;7.63;92.11;100271.88;5072260;28;20059;-57
2021/12/15 10:45:58;;;;;;;18.80;8.55;;;;;;;7.65;85.82;100277.91;5078285;28;20055;-58
2021/12/15 10:48:57;;;;;;;17.90;8.98;;;;;;;8.09;87.86;100279.94;5064304;28;20059;-55
2021/12/15 10:51:55;;;;;;;16.30;8.10;;;;;;;8.06;85.23;100276.56;5073423;28;20044;-56
2021/12/15 10:54:54;;;;;;;19.55;8.80;;;;;;;8.23;85.83;100270.75;5078305;28;20048;-57
2021/12/15 10:57:44;;;;;;;19.77;9.48;;;;;;;7.98;81.83;100269.84;5072817;28;20126;-59
2021/12/15 11:00:35;;;;;;;23.17;11.13;;;;;;;7.59;83.08;100272.88;5073452;28;20434;-59
2021/12/15 11:03:23;;;;;;;20.70;9.90;;;;;;;7.25;86.91;100264.34;5064043;28;20067;-60
2021/12/15 11:06:30;;;;;;;21.55;10.52;;;;;;;6.90;83.23;100264.50;5077925;28;20992;-60
2021/12/15 11:09:20;;;;;;;25.10;11.32;;;;;;;6.24;86.50;100275.84;5057901;28;20063;-60
2021/12/15 11:12:11;;;;;;;23.50;12.27;;;;;;;5.49;89.85;100246.47;5072349;28;20051;-59
2021/12/15 11:15:04;;;;;;;23.13;11.73;;;;;;;5.70;89.76;100260.69;5077838;28;20499;-59
2021/12/15 11:18:16;;;;;;;27.95;12.57;;;;;;;5.46;90.80;100257.78;5100320;28;20055;-59
2021/12/15 11:21:08;;;;;;;25.38;11.93;;;;;;;5.63;92.27;100256.53;5077544;28;20051;-59
2021/12/15 11:23:56;;;;;;;24.33;11.85;;;;;;;5.83;90.71;100248.22;5072015;28;20510;-58
2021/12/15 11:26:43;;;;;;;26.33;12.00;;;;;;;5.75;90.08;100253.63;5073099;28;20395;-59
2021/12/15 11:29:43;;;;;;;27.20;12.25;;;;;;;5.95;89.99;100247.09;5071822;28;20111;-58
2021/12/15 11:32:42;;;;;;;28.23;11.40;;;;;;;5.73;90.22;100237.22;5073130;28;20055;-57
2021/12/15 11:35:34;;;;;;;29.23;12.45;;;;;;;5.33;92.64;100236.44;5060597;28;20060;-58
2021/12/15 11:38:31;;;;;;;29.13;12.30;;;;;;;4.97;95.06;100232.03;5052761;28;20159;-58
2021/12/15 11:41:30;;;;;;;29.33;13.25;;;;;;;4.60;97.37;100230.22;5052562;28;20072;-59
2021/12/15 11:44:18;;;;;;;27.45;12.77;;;;;;;4.71;99.17;100232.56;5053592;28;20063;-57
2021/12/15 11:47:08;;;;;;;28.40;11.93;;;;;;;4.88;100.00;100227.88;5061422;28;20048;-55
2021/12/15 11:50:06;;;;;;;29.63;12.57;;;;;;;4.74;99.10;100219.53;5055682;28;20045;-58
2021/12/15 11:52:51;;;;;;;35.60;14.27;;;;;;;4.47;100.00;100208.84;5055659;28;20052;-58
2021/12/15 11:55:37;;;;;;;28.27;12.57;;;;;;;4.54;100.00;100215.59;5056294;28;20041;-58
2021/12/15 11:58:32;;;;;;;28.65;11.25;;;;;;;5.48;100.00;100201.44;5059669;28;20048;-57
2021/12/15 12:01:42;;;;;;;30.30;12.88;;;;;;;6.53;93.06;100212.59;5081265;28;20044;-58
2021/12/15 12:04:40;;;;;;;22.52;10.88;;;;;;;5.35;98.08;100218.19;5070332;28;20047;-60
2021/12/15 12:07:49;;;;;;;24.42;11.80;;;;;;;4.88;100.00;100209.69;5076549;28;20056;-60
2021/12/15 12:10:48;;;;;;;28.52;10.88;;;;;;;4.78;100.00;100206.44;5076504;28;20041;-59
2021/12/15 12:13:39;;;;;;;28.00;11.68;;;;;;;4.87;100.00;100197.63;5076213;28;20040;-57
2021/12/15 12:16:25;;;;;;;25.58;10.68;;;;;;;5.04;100.00;100201.59;5072522;28;20503;-59
2021/12/15 12:19:13;;;;;;;26.08;11.40;;;;;;;4.82;100.00;100189.06;5075741;28;20037;-60
2021/12/15 12:21:59;;;;;;;22.65;10.63;;;;;;;4.76;100.00;100192.66;5074441;28;20041;-61
2021/12/15 12:24:50;;;;;;;23.70;10.27;;;;;;;4.74;100.00;100188.38;5081936;28;20214;-58
2021/12/15 12:27:38;;;;;;;25.27;11.30;;;;;;;4.89;100.00;100189.78;5078170;28;20029;-59
2021/12/15 12:30:32;;;;;;;23.83;10.93;;;;;;;4.77;100.00;100171.00;5099203;28;20040;-62
2021/12/15 12:33:21;;;;;;;23.88;10.75;;;;;;;4.83;100.00;100180.38;5075751;28;20049;-60
2021/12/15 12:36:34;;;;;;;21.40;9.93;;;;;;;4.88;100.00;100177.69;5073821;28;20036;-61
2021/12/15 12:39:22;;;;;;;22.88;9.88;;;;;;;4.73;100.00;100151.19;5075048;28;20051;-61
2021/12/15 12:42:08;;;;;;;21.55;9.45;;;;;;;4.85;100.00;100182.97;5075573;28;20072;-61
2021/12/15 12:45:30;;;;;;;17.90;8.20;;;;;;;4.88;100.00;100188.09;5075475;28;20060;-60
2021/12/15 13:01:32;;;;;;;23.10;9.45;;;;;;;4.73;100.00;100189.28;5072735;28;20068;-61
2021/12/15 13:04:18;;;;;;;25.00;10.02;;;;;;;4.82;100.00;100191.66;5055109;28;20052;-60
2021/12/15 13:07:04;;;;;;;20.13;8.95;;;;;;;4.75;100.00;100187.50;5055187;28;20053;-60
2021/12/15 13:09:51;;;;;;;22.02;8.50;;;;;;;4.79;100.00;100199.53;5054975;28;20052;-61
2021/12/15 13:12:40;;;;;;;22.30;9.30;;;;;;;4.65;100.00;100190.28;5055270;28;20052;-61
2021/12/15 13:15:34;;;;;;;22.83;10.00;;;;;;;4.64;100.00;100200.69;5054537;28;20087;-59
2021/12/15 13:18:20;;;;;;;20.50;9.05;;;;;;;4.71;100.00;100201.41;5066229;28;20044;-61
2021/12/15 13:21:07;;;;;;;26.10;10.57;;;;;;;4.61;100.00;100201.63;5054920;28;20064;-60
2021/12/15 13:23:58;;;;;;;21.60;9.68;;;;;;;4.52;100.00;100197.47;5059697;28;20460;-60
2021/12/15 13:29:53;;;;;;;24.75;10.52;;;;;;;4.36;100.00;100214.25;5054508;28;20064;-60
2021/12/15 13:32:46;;;;;;;22.58;8.52;;;;;;;4.58;100.00;100213.81;5067626;28;20040;-63
2021/12/15 13:35:53;;;;;;;25.45;11.05;;;;;;;4.47;100.00;100199.31;5094425;28;20067;-62
2021/12/15 13:38:52;;;;;;;24.50;11.15;;;;;;;4.37;100.00;100198.66;5078998;28;20045;-61
2021/12/15 13:42:01;;;;;;;24.20;10.68;;;;;;;4.14;100.00;100189.56;5085856;28;20060;-60
2021/12/15 13:44:49;;;;;;;23.27;10.18;;;;;;;4.24;100.00;100207.56;5095492;28;20056;-60
2021/12/15 13:47:44;;;;;;;26.45;11.35;;;;;;;4.19;100.00;100211.06;5082714;28;20052;-59
2021/12/15 13:50:30;;;;;;;24.40;10.13;;;;;;;4.31;100.00;100217.78;5077782;28;20484;-59
2021/12/15 13:53:31;;;;;;;26.55;11.15;;;;;;;4.30;100.00;100210.88;5063544;28;20406;-60
2021/12/15 13:56:47;;;;;;;23.23;10.35;;;;;;;4.23;100.00;100209.28;5078730;28;20375;-60
2021/12/15 13:59:37;;;;;;;24.85;10.35;;;;;;;4.19;100.00;100218.03;5067100;28;20040;-59
2021/12/15 14:02:54;;;;;;;26.55;11.38;;;;;;;4.25;100.00;100223.09;5054447;28;20041;-59
2021/12/15 14:05:53;;;;;;;25.52;10.00;;;;;;;4.31;100.00;100217.78;5044128;28;20045;-60
2021/12/15 14:08:46;;;;;;;24.58;11.57;;;;;;;4.47;100.00;100224.41;5053578;28;20045;-60
2021/12/15 14:11:33;;;;;;;22.00;9.23;;;;;;;4.44;100.00;100222.72;5053705;28;20472;-60
2021/12/15 14:14:23;;;;;;;25.80;9.70;;;;;;;4.36;100.00;100207.31;5052577;28;20115;-60
2021/12/15 14:17:09;;;;;;;17.58;8.50;;;;;;;4.46;100.00;100214.91;5052638;28;20060;-61
2021/12/15 14:19:55;;;;;;;20.33;8.93;;;;;;;4.42;100.00;100221.91;5052704;28;20151;-60
2021/12/15 14:22:41;;;;;;;20.85;9.07;;;;;;;4.47;100.00;100227.00;5053605;28;20056;-61
2021/12/15 14:25:27;;;;;;;18.88;10.05;;;;;;;4.37;100.00;100213.34;5052397;28;20051;-60
2021/12/15 14:28:20;;;;;;;18.70;8.55;;;;;;;4.47;100.00;100221.81;5053170;28;20504;-60
2021/12/15 14:31:14;;;;;;;20.23;9.35;;;;;;;4.50;100.00;100225.22;5053482;28;20056;-60